Lamco Airport

Jump to: basic info | weather | comments

Related pages: nearby airports | nearby navaids | notams | map

Basic information (top)

Codes: UCN GLLB
Location: lon 5.867000, lat -10.050000, elev 30 ft / 9 m msl
Status: small_airport
Scheduled airline service: no
Links: Wikipedia Mobile

Weather (top)

Current conditions for Roberts International Airport 29nm (53km) NW (rec'd 2014/04/16 07:00Z):

GLRB 160700Z 02003KT 9000 FEW012 BKN230 25/24 Q1011 RMK BRVC

Airport forecast for Roberts International Airport 29nm (53km) NW (rec'd 2014/04/16 06:54Z):

TAF TAF GLRB 160400Z 1606/1712 24011KT 9999 BKN020 
      BECMG 1606/1608 02004KT 8000 SCT012 
     FM160900 20008KT 9999 BKN018 
      TEMPO 1616/1622 VRB03KT 9999 SCT015

Latest comments (top)

No comments yet for Lamco Airport

More... (top)

See also NOTAMs and nearby airports and navaids, or visit the Lamco Airport page at the main OurAirports website..